createdAt,value
2022-08-05T00:01:35.501Z,24.98
2022-08-05T00:04:08.436Z,24.88
2022-08-05T00:06:36.897Z,25.13
2022-08-05T00:09:13.077Z,25.02
2022-08-05T00:11:48.440Z,25.09
2022-08-05T00:14:18.186Z,24.83
2022-08-05T00:16:52.448Z,24.95
2022-08-05T00:19:23.275Z,24.65
2022-08-05T00:21:54.004Z,24.71
2022-08-05T00:24:24.178Z,24.43
2022-08-05T00:26:53.610Z,24.66
2022-08-05T00:29:25.653Z,24.71
2022-08-05T00:32:13.060Z,24.60
2022-08-05T00:35:03.414Z,24.66
2022-08-05T00:37:50.435Z,24.67
2022-08-05T00:40:26.613Z,24.88
2022-08-05T00:42:58.865Z,24.68
2022-08-05T00:45:38.392Z,24.60
2022-08-05T00:48:09.489Z,24.98
2022-08-05T00:50:41.913Z,24.83
2022-08-05T00:53:45.025Z,25.00
2022-08-05T00:56:01.341Z,24.71
2022-08-05T00:58:29.914Z,24.91
2022-08-05T01:00:58.638Z,24.99
2022-08-05T01:03:31.006Z,24.72
2022-08-05T01:06:03.955Z,24.92
2022-08-05T01:08:43.070Z,24.57
2022-08-05T01:11:22.203Z,24.92
2022-08-05T01:14:17.795Z,24.77
2022-08-05T01:17:09.192Z,24.36
2022-08-05T01:20:01.746Z,24.76
2022-08-05T01:23:14.942Z,24.77
2022-08-05T01:26:03.807Z,24.37
2022-08-05T01:28:50.832Z,24.20
2022-08-05T01:31:26.273Z,24.57
2022-08-05T01:34:33.807Z,24.41
2022-08-05T01:37:24.779Z,24.19
2022-08-05T01:39:59.221Z,24.80
2022-08-05T01:42:29.742Z,25.04
2022-08-05T01:45:02.428Z,25.33
2022-08-05T01:47:39.201Z,24.86
2022-08-05T01:50:15.479Z,24.84
2022-08-05T01:52:50.001Z,24.98
2022-08-05T01:55:22.325Z,24.53
2022-08-05T01:58:29.273Z,24.90
2022-08-05T02:00:48.506Z,24.69
2022-08-05T02:03:32.041Z,24.03
2022-08-05T02:06:33.328Z,24.44
2022-08-05T02:08:58.444Z,24.51
2022-08-05T02:11:57.390Z,24.32
2022-08-05T02:14:49.263Z,24.66
2022-08-05T02:18:30.645Z,24.84
2022-08-05T02:20:27.227Z,24.96
2022-08-05T02:23:01.454Z,24.79
2022-08-05T02:25:49.146Z,25.04
2022-08-05T02:28:29.138Z,25.17
2022-08-05T02:31:02.482Z,24.97
2022-08-05T02:33:38.788Z,25.12
2022-08-05T02:36:15.437Z,25.06
2022-08-05T02:38:52.804Z,25.00
2022-08-05T02:41:28.826Z,24.75
2022-08-05T02:44:13.798Z,24.96
2022-08-05T02:46:58.663Z,25.08
2022-08-05T02:49:36.153Z,25.02
2022-08-05T02:52:11.583Z,25.04
2022-08-05T02:54:50.756Z,24.77
2022-08-05T02:58:11.605Z,24.88
2022-08-05T03:00:13.227Z,24.79
2022-08-05T03:02:44.700Z,24.54
2022-08-05T03:05:15.071Z,24.56
2022-08-05T03:08:06.733Z,24.75
2022-08-05T03:10:32.928Z,24.62
2022-08-05T03:15:29.115Z,24.75
2022-08-05T03:17:58.044Z,24.75
2022-08-05T03:20:27.947Z,24.61
2022-08-05T03:22:57.746Z,24.73
2022-08-05T03:25:33.241Z,24.42
2022-08-05T03:28:18.704Z,24.16
2022-08-05T03:30:49.481Z,24.43
2022-08-05T03:33:18.606Z,24.06
2022-08-05T03:35:48.279Z,24.09
2022-08-05T03:38:32.873Z,24.24
2022-08-05T03:41:03.959Z,24.08
2022-08-05T03:44:09.571Z,23.48
2022-08-05T03:46:26.782Z,23.92
2022-08-05T03:48:59.431Z,23.46
2022-08-05T03:52:48.554Z,23.88
2022-08-05T03:55:07.228Z,24.13
2022-08-05T03:57:42.577Z,24.18
2022-08-05T04:00:16.488Z,24.14
2022-08-05T04:02:57.903Z,24.35
2022-08-05T04:05:33.829Z,24.34
2022-08-05T04:08:14.780Z,24.50
2022-08-05T04:10:55.433Z,24.27
2022-08-05T04:13:24.533Z,24.33
2022-08-05T04:16:04.498Z,24.47
2022-08-05T04:18:34.534Z,24.40
2022-08-05T04:21:04.107Z,24.28
2022-08-05T04:24:05.659Z,24.17
2022-08-05T04:26:24.122Z,24.24
2022-08-05T04:28:53.248Z,24.50
2022-08-05T04:31:22.436Z,24.19
2022-08-05T04:34:31.602Z,24.18
2022-08-05T04:36:49.348Z,24.28
2022-08-05T04:39:19.835Z,24.22
2022-08-05T04:41:48.946Z,24.21
2022-08-05T04:44:21.188Z,24.37
2022-08-05T04:46:52.869Z,24.50
2022-08-05T04:49:24.891Z,24.47
2022-08-05T04:52:09.952Z,24.02
2022-08-05T04:54:42.265Z,23.95
2022-08-05T04:57:10.938Z,24.03
2022-08-05T04:59:40.831Z,24.17
2022-08-05T05:02:36.408Z,24.13
2022-08-05T05:05:01.773Z,24.12
2022-08-05T05:07:35.254Z,24.06
2022-08-05T05:10:06.446Z,24.00
2022-08-05T05:12:37.040Z,24.05
2022-08-05T05:15:10.917Z,23.83
2022-08-05T05:17:55.592Z,23.72
2022-08-05T05:20:28.431Z,23.77
2022-08-05T05:23:01.381Z,23.54
2022-08-05T05:25:40.795Z,23.57
2022-08-05T05:28:12.886Z,23.44
2022-08-05T05:30:41.384Z,23.54
2022-08-05T05:33:16.843Z,23.86
2022-08-05T05:35:47.422Z,23.99
2022-08-05T05:38:27.148Z,23.97
2022-08-05T05:40:57.047Z,23.70
2022-08-05T05:43:56.464Z,24.10
2022-08-05T05:46:17.552Z,23.88
2022-08-05T05:48:49.001Z,24.08
2022-08-05T05:51:19.315Z,24.00
2022-08-05T05:53:57.522Z,23.51
2022-08-05T05:56:33.396Z,23.79
2022-08-05T05:59:05.672Z,24.01
2022-08-05T06:01:57.247Z,24.22
2022-08-05T06:04:26.653Z,24.26
2022-08-05T06:06:55.289Z,24.29
2022-08-05T06:09:50.191Z,24.14
2022-08-05T06:12:18.535Z,24.10
2022-08-05T06:14:48.371Z,24.19
2022-08-05T06:17:22.560Z,24.02
2022-08-05T06:19:56.637Z,24.19
2022-08-05T06:22:33.662Z,23.96
2022-08-05T06:25:59.302Z,23.43
2022-08-05T06:28:11.342Z,23.91
2022-08-05T06:30:41.985Z,23.76
2022-08-05T06:33:11.182Z,23.31
2022-08-05T06:36:07.137Z,23.74
2022-08-05T06:38:37.142Z,23.85
2022-08-05T06:41:07.747Z,24.11
2022-08-05T06:43:59.227Z,24.26
2022-08-05T06:46:30.289Z,24.26
2022-08-05T06:49:01.284Z,24.28
2022-08-05T06:51:31.044Z,23.78
2022-08-05T06:54:01.933Z,23.99
2022-08-05T06:56:33.391Z,24.16
2022-08-05T06:59:09.520Z,24.25
2022-08-05T07:01:40.762Z,23.99
2022-08-05T07:04:11.081Z,23.84
2022-08-05T07:06:42.634Z,23.71
2022-08-05T07:09:11.540Z,23.72
2022-08-05T07:11:46.669Z,23.76
2022-08-05T07:14:39.017Z,23.84
2022-08-05T07:17:58.597Z,24.08
2022-08-05T07:22:45.728Z,23.82
2022-08-05T07:25:22.995Z,23.63
2022-08-05T07:28:11.481Z,23.82
2022-08-05T07:30:40.922Z,24.20
2022-08-05T07:33:16.204Z,24.07
2022-08-05T07:36:01.813Z,23.94
2022-08-05T07:38:43.369Z,24.34
2022-08-05T07:42:09.232Z,24.49
2022-08-05T07:44:14.282Z,24.51
2022-08-05T07:46:49.632Z,24.49
2022-08-05T07:49:20.654Z,24.73
2022-08-05T07:51:53.550Z,24.71
2022-08-05T07:54:30.866Z,24.71
2022-08-05T07:57:18.091Z,24.64
2022-08-05T07:59:53.495Z,24.78
2022-08-05T08:02:30.884Z,24.76
2022-08-05T08:05:16.232Z,24.76
2022-08-05T08:07:59.544Z,25.10
2022-08-05T08:10:30.415Z,25.10
2022-08-05T08:12:58.935Z,24.68
2022-08-05T08:15:37.353Z,23.59
2022-08-05T08:18:21.007Z,24.49
2022-08-05T08:21:03.379Z,24.58
2022-08-05T08:24:02.441Z,24.38
2022-08-05T08:26:29.766Z,25.14
2022-08-05T08:29:21.578Z,25.21
2022-08-05T08:31:48.917Z,25.97
2022-08-05T08:34:29.978Z,25.24
2022-08-05T08:37:03.441Z,24.96
2022-08-05T08:39:37.658Z,24.88
2022-08-05T08:42:34.113Z,24.67
2022-08-05T08:45:24.352Z,24.61
2022-08-05T08:48:12.307Z,25.01
2022-08-05T08:51:22.176Z,24.72
2022-08-05T08:53:36.801Z,24.94
2022-08-05T08:56:06.642Z,24.61
2022-08-05T08:58:43.927Z,24.70
2022-08-05T09:01:18.381Z,24.44
2022-08-05T09:03:54.402Z,25.14
2022-08-05T09:06:29.142Z,25.47
2022-08-05T09:09:00.655Z,25.35
2022-08-05T09:11:53.790Z,25.02
2022-08-05T09:14:57.620Z,25.38
2022-08-05T09:17:16.132Z,25.90
2022-08-05T09:20:05.617Z,25.87
2022-08-05T09:23:18.714Z,26.12
2022-08-05T09:26:00.253Z,26.38
2022-08-05T09:28:34.575Z,26.30
2022-08-05T09:31:22.682Z,25.50
2022-08-05T09:33:59.637Z,25.67
2022-08-05T09:36:55.897Z,25.69
2022-08-05T09:39:45.135Z,25.90
2022-08-05T09:42:23.500Z,25.67
2022-08-05T09:45:17.433Z,24.40
2022-08-05T09:47:55.985Z,25.67
2022-08-05T09:50:44.073Z,25.67
2022-08-05T09:53:23.015Z,26.00
2022-08-05T09:56:04.837Z,24.60
2022-08-05T09:58:42.093Z,24.23
2022-08-05T10:01:22.361Z,24.27
2022-08-05T10:04:11.034Z,24.69
2022-08-05T10:06:59.064Z,24.41
2022-08-05T10:09:29.955Z,24.74
2022-08-05T10:12:18.974Z,25.99
2022-08-05T10:15:20.374Z,26.09
2022-08-05T10:18:16.725Z,26.42
2022-08-05T10:20:58.276Z,26.17
2022-08-05T10:23:56.113Z,26.36
2022-08-05T10:26:51.686Z,26.49
2022-08-05T10:29:23.339Z,25.92
2022-08-05T10:32:51.473Z,25.42
2022-08-05T10:34:41.600Z,25.92
2022-08-05T10:37:12.659Z,25.63
2022-08-05T10:39:59.018Z,24.95
2022-08-05T10:42:36.927Z,25.64
2022-08-05T10:45:20.892Z,25.08
2022-08-05T10:48:30.327Z,24.85
2022-08-05T10:51:22.314Z,24.74
2022-08-05T10:53:51.248Z,25.05
2022-08-05T10:56:25.927Z,24.91
2022-08-05T10:58:55.055Z,26.22
2022-08-05T11:02:04.665Z,26.21
2022-08-05T11:04:28.443Z,25.56
2022-08-05T11:07:05.479Z,26.48
2022-08-05T11:09:50.859Z,26.82
2022-08-05T11:12:37.269Z,26.26
2022-08-05T11:16:00.236Z,25.88
2022-08-05T11:18:35.131Z,26.12
2022-08-05T11:21:11.332Z,25.89
2022-08-05T11:24:05.316Z,25.84
2022-08-05T11:26:43.792Z,26.51
2022-08-05T11:29:42.746Z,26.98
2022-08-05T11:32:28.643Z,26.69
2022-08-05T11:34:57.596Z,26.32
2022-08-05T11:38:30.913Z,25.73
2022-08-05T11:41:15.429Z,25.31
2022-08-05T11:44:12.456Z,25.37
2022-08-05T11:47:11.824Z,25.20
2022-08-05T11:49:49.836Z,25.64
2022-08-05T11:52:29.412Z,26.16
2022-08-05T11:54:59.562Z,25.98
2022-08-05T11:58:08.504Z,26.02
2022-08-05T12:00:30.426Z,25.47
2022-08-05T12:03:16.439Z,26.89
2022-08-05T12:06:05.807Z,26.29
2022-08-05T12:08:52.344Z,26.53
2022-08-05T12:11:40.467Z,25.34
2022-08-05T12:14:10.558Z,26.26
2022-08-05T12:16:45.616Z,26.64
2022-08-05T12:20:26.488Z,26.58
2022-08-05T12:22:09.499Z,25.53
2022-08-05T12:24:49.708Z,25.19
2022-08-05T12:27:26.599Z,25.03
2022-08-05T12:30:10.407Z,24.50
2022-08-05T12:32:50.457Z,25.19
2022-08-05T12:35:21.661Z,25.01
2022-08-05T12:37:53.299Z,24.64
2022-08-05T12:40:28.734Z,25.48
2022-08-05T12:42:58.276Z,24.93
2022-08-05T12:45:42.403Z,25.66
2022-08-05T12:48:17.554Z,25.43
2022-08-05T12:52:14.493Z,25.71
2022-08-05T12:54:26.484Z,25.57
2022-08-05T12:57:03.689Z,25.24
2022-08-05T13:00:08.845Z,25.25
2022-08-05T13:02:32.037Z,25.32
2022-08-05T13:05:00.716Z,25.78
2022-08-05T13:07:57.826Z,25.18
2022-08-05T13:10:20.461Z,26.01
2022-08-05T13:12:57.323Z,26.36
2022-08-05T13:15:41.401Z,26.00
2022-08-05T13:18:21.073Z,25.99
2022-08-05T13:20:52.566Z,25.92
2022-08-05T13:23:22.683Z,26.61
2022-08-05T13:25:59.425Z,26.60
2022-08-05T13:28:29.734Z,26.08
2022-08-05T13:31:03.284Z,26.80
2022-08-05T13:34:22.859Z,26.55
2022-08-05T13:36:30.862Z,26.37
2022-08-05T13:38:59.487Z,26.21
2022-08-05T13:41:35.845Z,27.09
2022-08-05T13:44:06.366Z,26.84
2022-08-05T13:46:43.734Z,26.87
2022-08-05T13:49:23.415Z,26.80
2022-08-05T13:51:52.077Z,27.34
2022-08-05T13:54:24.894Z,26.34
2022-08-05T13:56:53.836Z,26.12
2022-08-05T13:59:24.245Z,26.32
2022-08-05T14:02:00.152Z,27.15
2022-08-05T14:04:54.011Z,26.51
2022-08-05T14:08:02.705Z,26.23
2022-08-05T14:10:18.849Z,26.02
2022-08-05T14:12:57.226Z,25.68
2022-08-05T14:16:07.500Z,25.77
2022-08-05T14:18:18.506Z,26.17
2022-08-05T14:20:52.903Z,26.87
2022-08-05T14:23:25.819Z,25.84
2022-08-05T14:25:58.640Z,26.19
2022-08-05T14:28:29.494Z,26.14
2022-08-05T14:30:59.748Z,26.42
2022-08-05T14:33:32.616Z,25.35
2022-08-05T14:36:21.296Z,25.88
2022-08-05T14:38:51.381Z,25.43
2022-08-05T14:41:20.104Z,25.09
2022-08-05T14:44:01.957Z,25.03
2022-08-05T14:46:37.867Z,26.00
2022-08-05T14:49:08.169Z,25.11
2022-08-05T14:51:38.943Z,25.57
2022-08-05T14:54:26.903Z,25.23
2022-08-05T14:56:58.907Z,25.55
2022-08-05T14:59:29.709Z,25.25
2022-08-05T15:02:15.668Z,25.36
2022-08-05T15:04:47.639Z,26.16
2022-08-05T15:08:12.251Z,25.61
2022-08-05T15:10:09.802Z,25.39
2022-08-05T15:12:59.800Z,25.74
2022-08-05T15:15:55.203Z,25.86
2022-08-05T15:18:17.265Z,25.99
2022-08-05T15:20:46.607Z,26.15
2022-08-05T15:23:16.293Z,26.04
2022-08-05T15:25:53.053Z,25.23
2022-08-05T15:28:38.632Z,25.86
2022-08-05T15:31:11.638Z,25.06
2022-08-05T15:34:05.171Z,25.24
2022-08-05T15:36:28.681Z,26.06
2022-08-05T15:40:58.831Z,26.59
2022-08-05T15:41:57.312Z,26.74
2022-08-05T15:44:28.262Z,26.01
2022-08-05T15:47:01.117Z,25.39
2022-08-05T15:49:48.171Z,25.53
2022-08-05T15:52:51.921Z,25.48
2022-08-05T15:55:10.437Z,25.03
2022-08-05T15:57:45.993Z,25.26
2022-08-05T16:00:32.652Z,25.45
2022-08-05T16:03:07.359Z,25.40
2022-08-05T16:05:36.062Z,24.99
2022-08-05T16:08:07.465Z,24.41
2022-08-05T16:10:36.808Z,24.29
2022-08-05T16:13:05.441Z,24.54
2022-08-05T16:15:34.081Z,25.24
2022-08-05T16:18:04.412Z,25.18
2022-08-05T16:20:38.113Z,25.14
2022-08-05T16:23:08.663Z,25.03
2022-08-05T16:25:38.007Z,24.64
2022-08-05T16:28:09.732Z,24.95
2022-08-05T16:30:41.480Z,24.78
2022-08-05T16:33:10.211Z,24.56
2022-08-05T16:35:42.191Z,25.06
2022-08-05T16:38:23.674Z,25.38
2022-08-05T16:41:00.912Z,24.81
2022-08-05T16:43:34.600Z,25.39
2022-08-05T16:46:23.944Z,25.01
2022-08-05T16:48:53.117Z,25.10
2022-08-05T16:51:24.516Z,24.15
2022-08-05T16:54:04.019Z,24.07
2022-08-05T16:56:38.109Z,23.92
2022-08-05T16:59:10.590Z,23.49
2022-08-05T17:01:53.630Z,23.99
2022-08-05T17:04:26.707Z,23.82
2022-08-05T17:07:00.626Z,24.91
2022-08-05T17:09:31.056Z,24.61
2022-08-05T17:12:22.697Z,24.52
2022-08-05T17:15:09.278Z,23.90
2022-08-05T17:17:42.454Z,24.12
2022-08-05T17:20:12.176Z,23.70
2022-08-05T17:22:43.467Z,23.60
2022-08-05T17:25:33.870Z,23.53
2022-08-05T17:28:02.113Z,24.31
2022-08-05T17:30:31.654Z,24.44
2022-08-05T17:33:00.448Z,24.38
2022-08-05T17:36:06.862Z,23.98
2022-08-05T17:38:17.639Z,23.63
2022-08-05T17:40:46.162Z,23.39
2022-08-05T17:43:16.131Z,23.17
2022-08-05T17:45:44.569Z,24.38
2022-08-05T17:48:13.339Z,24.05
2022-08-05T17:50:44.369Z,24.24
2022-08-05T17:53:12.835Z,23.57
2022-08-05T17:55:43.157Z,23.83
2022-08-05T17:58:13.770Z,23.91
2022-08-05T18:00:47.519Z,23.82
2022-08-05T18:03:48.510Z,23.51
2022-08-05T18:06:12.299Z,22.88
2022-08-05T18:08:52.141Z,22.52
2022-08-05T18:11:32.979Z,22.45
2022-08-05T18:14:13.467Z,22.54
2022-08-05T18:16:51.868Z,22.32
2022-08-05T18:19:22.747Z,22.28
2022-08-05T18:22:09.725Z,22.09
2022-08-05T18:24:41.347Z,22.66
2022-08-05T18:27:12.389Z,22.41
2022-08-05T18:29:41.505Z,22.70
2022-08-05T18:32:12.729Z,22.44
2022-08-05T18:34:42.837Z,22.18
2022-08-05T18:37:12.604Z,22.09
2022-08-05T18:41:50.554Z,22.20
2022-08-05T18:42:34.303Z,22.27
2022-08-05T18:45:04.572Z,22.70
2022-08-05T18:47:35.162Z,22.63
2022-08-05T18:50:42.112Z,22.36
2022-08-05T18:53:22.736Z,22.79
2022-08-05T18:55:53.541Z,22.43
2022-08-05T18:58:28.574Z,21.93
2022-08-05T19:00:57.760Z,22.91
2022-08-05T19:03:55.614Z,22.05
2022-08-05T19:06:22.034Z,21.91
2022-08-05T19:09:02.555Z,21.74
2022-08-05T19:11:37.195Z,21.93
2022-08-05T19:14:53.537Z,21.70
2022-08-05T19:17:11.622Z,21.48
2022-08-05T19:19:46.580Z,22.03
2022-08-05T19:22:17.232Z,21.62
2022-08-05T19:24:55.892Z,22.15
2022-08-05T19:27:27.733Z,21.27
2022-08-05T19:29:58.922Z,21.67
2022-08-05T19:32:27.838Z,21.82
2022-08-05T19:34:57.774Z,21.58
2022-08-05T19:37:29.945Z,22.01
2022-08-05T19:40:15.490Z,22.75
2022-08-05T19:43:04.890Z,22.54
2022-08-05T19:45:33.352Z,21.85
2022-08-05T19:48:06.270Z,21.97
2022-08-05T19:50:36.621Z,21.74
2022-08-05T19:53:09.444Z,22.17
2022-08-05T19:56:14.916Z,22.19
2022-08-05T19:58:30.112Z,21.84
2022-08-05T20:00:58.931Z,22.24
2022-08-05T20:03:38.774Z,21.96
2022-08-05T20:06:15.525Z,21.44
2022-08-05T20:08:47.468Z,21.49
2022-08-05T20:11:22.639Z,21.63
2022-08-05T20:13:59.050Z,21.43
2022-08-05T20:16:40.172Z,21.52
2022-08-05T20:19:09.046Z,21.43
2022-08-05T20:21:38.563Z,21.70
2022-08-05T20:24:07.563Z,21.26
2022-08-05T20:26:39.977Z,21.32
2022-08-05T20:29:26.459Z,21.35
2022-08-05T20:31:58.378Z,21.55
2022-08-05T20:34:28.395Z,21.40
2022-08-05T20:36:56.839Z,21.43
2022-08-05T20:39:25.855Z,21.12
2022-08-05T20:42:04.971Z,21.17
2022-08-05T20:44:37.762Z,21.33
2022-08-05T20:47:07.645Z,21.61
2022-08-05T20:49:39.288Z,21.62
2022-08-05T20:52:10.481Z,21.23
2022-08-05T20:54:59.591Z,21.33
2022-08-05T20:57:43.963Z,20.73
2022-08-05T21:00:36.336Z,20.82
2022-08-05T21:03:07.413Z,20.91
2022-08-05T21:05:54.449Z,20.50
2022-08-05T21:08:26.481Z,20.61
2022-08-05T21:11:10.023Z,20.84
2022-08-05T21:13:55.682Z,21.01
2022-08-05T21:16:29.806Z,20.92
2022-08-05T21:19:00.835Z,20.98
2022-08-05T21:21:44.566Z,20.80
2022-08-05T21:24:19.992Z,20.84
2022-08-05T21:26:58.283Z,21.02
2022-08-05T21:29:31.434Z,21.09
2022-08-05T21:32:02.799Z,20.82
2022-08-05T21:34:31.796Z,20.83
2022-08-05T21:37:05.018Z,20.77
2022-08-05T21:39:34.686Z,20.86
2022-08-05T21:42:07.060Z,20.72
2022-08-05T21:44:55.541Z,20.83
2022-08-05T21:47:55.018Z,20.88
2022-08-05T21:50:15.800Z,20.80
2022-08-05T21:52:47.209Z,20.53
2022-08-05T21:55:17.950Z,20.82
2022-08-05T21:58:06.528Z,20.74
2022-08-05T22:00:35.072Z,20.51
2022-08-05T22:03:04.450Z,20.25
2022-08-05T22:05:48.642Z,20.30
2022-08-05T22:08:22.082Z,20.27
2022-08-05T22:10:53.339Z,20.22
2022-08-05T22:14:18.276Z,20.10
2022-08-05T22:16:39.579Z,19.96
2022-08-05T22:18:59.028Z,19.95
2022-08-05T22:21:27.597Z,19.99
2022-08-05T22:24:40.632Z,19.73
2022-08-05T22:27:22.485Z,19.96
2022-08-05T22:29:54.305Z,19.89
2022-08-05T22:32:23.148Z,20.10
2022-08-05T22:34:52.587Z,20.12
2022-08-05T22:37:21.305Z,19.92
2022-08-05T22:39:51.102Z,20.00
2022-08-05T22:42:26.260Z,19.92
2022-08-05T22:44:56.603Z,20.02
2022-08-05T22:47:29.115Z,19.91
2022-08-05T22:50:20.112Z,19.76
2022-08-05T22:52:51.433Z,19.60
2022-08-05T22:55:22.826Z,19.61
2022-08-05T22:57:53.368Z,19.64
2022-08-05T23:00:23.298Z,19.79
2022-08-05T23:02:53.442Z,19.64
2022-08-05T23:05:23.181Z,19.65
2022-08-05T23:07:52.374Z,19.75
2022-08-05T23:10:24.066Z,19.71
2022-08-05T23:12:55.091Z,19.65
2022-08-05T23:15:29.588Z,19.62
2022-08-05T23:18:06.151Z,19.68
2022-08-05T23:20:40.434Z,19.85
2022-08-05T23:23:11.790Z,19.98
2022-08-05T23:25:50.961Z,19.50
2022-08-05T23:28:28.804Z,19.33
2022-08-05T23:31:15.652Z,19.20
2022-08-05T23:34:06.044Z,19.20
2022-08-05T23:36:39.766Z,19.20
2022-08-05T23:39:16.365Z,19.20
2022-08-05T23:41:53.905Z,19.27
2022-08-05T23:44:25.029Z,19.45
2022-08-05T23:46:56.527Z,19.17
2022-08-05T23:49:35.894Z,19.03
2022-08-05T23:52:25.198Z,18.95
2022-08-05T23:54:54.869Z,18.87
2022-08-05T23:57:28.344Z,18.82
